Time;durP1;ratioP1;P1;durP2;ratioP2;P2;SDS_P1;SDS_P2;PMS_P1;PMS_P2;Temp;Humidity;BMP_temperature;BMP_pressure;BME280_temperature;BME280_humidity;BME280_pressure;Samples;Min_cycle;Max_cycle;Signal;HPM_P1;HPM_P2
2023/12/26 00:01:54;;;;;;;0.10;0.10;;;;;;;;;;5115158;28;20441;-79
2023/12/26 00:04:22;;;;;;;0.10;0.10;;;;;;;;;;5126186;28;20229;-81
2023/12/26 00:06:49;;;;;;;0.10;0.10;;;;;;;;;;5115086;28;20239;-80
2023/12/26 00:09:17;;;;;;;0.10;0.10;;;;;;;;;;5126541;28;20203;-80
2023/12/26 00:11:43;;;;;;;0.10;0.10;;;;;;;;;;5115139;28;20239;-81
2023/12/26 00:14:10;;;;;;;0.10;0.10;;;;;;;;;;5126179;28;20362;-80
2023/12/26 00:16:37;;;;;;;0.10;0.10;;;;;;;;;;5115118;28;20502;-80
2023/12/26 00:19:03;;;;;;;0.10;0.10;;;;;;;;;;5126390;28;20202;-80
2023/12/26 00:21:30;;;;;;;0.10;0.10;;;;;;;;;;5115344;28;20245;-80
2023/12/26 00:23:56;;;;;;;0.10;0.10;;;;;;;;;;5125852;28;20242;-81
2023/12/26 00:26:24;;;;;;;0.10;0.10;;;;;;;;;;5114917;28;20238;-80
2023/12/26 00:28:51;;;;;;;0.10;0.10;;;;;;;;;;5125725;28;20209;-81
2023/12/26 00:31:17;;;;;;;0.20;0.20;;;;;;;;;;5114285;28;20244;-79
2023/12/26 00:33:44;;;;;;;0.10;0.10;;;;;;;;;;5125441;28;20215;-80
2023/12/26 00:36:12;;;;;;;0.10;0.10;;;;;;;;;;5114785;28;20241;-80
2023/12/26 00:38:39;;;;;;;0.10;0.10;;;;;;;;;;5125365;28;20203;-81
2023/12/26 00:41:06;;;;;;;0.17;0.17;;;;;;;;;;5114942;28;20419;-80
2023/12/26 00:43:34;;;;;;;0.10;0.10;;;;;;;;;;5125246;28;20210;-80
2023/12/26 00:46:00;;;;;;;0.10;0.10;;;;;;;;;;5114829;28;20594;-80
2023/12/26 00:48:27;;;;;;;0.10;0.10;;;;;;;;;;5125064;28;20216;-81
2023/12/26 00:50:53;;;;;;;0.10;0.10;;;;;;;;;;5114984;28;20267;-80
2023/12/26 00:53:19;;;;;;;0.10;0.10;;;;;;;;;;5124912;28;20252;-80
2023/12/26 00:55:46;;;;;;;0.10;0.10;;;;;;;;;;5114862;28;20245;-81
2023/12/26 00:58:12;;;;;;;0.10;0.10;;;;;;;;;;5124899;28;20203;-80
2023/12/26 01:00:40;;;;;;;0.10;0.10;;;;;;;;;;5114615;28;20254;-81
2023/12/26 01:03:07;;;;;;;0.10;0.10;;;;;;;;;;5124619;28;20210;-77
2023/12/26 01:05:33;;;;;;;0.10;0.10;;;;;;;;;;5114963;28;20242;-80
2023/12/26 01:07:59;;;;;;;0.10;0.10;;;;;;;;;;5124760;28;20202;-79
2023/12/26 01:10:26;;;;;;;0.10;0.10;;;;;;;;;;5114726;28;20224;-80
2023/12/26 01:12:52;;;;;;;0.10;0.10;;;;;;;;;;5124434;28;20451;-80
2023/12/26 01:15:19;;;;;;;0.10;0.10;;;;;;;;;;5114973;28;20210;-79
2023/12/26 01:17:46;;;;;;;0.10;0.10;;;;;;;;;;5124042;28;20202;-79
2023/12/26 01:20:13;;;;;;;0.10;0.10;;;;;;;;;;5114490;28;20210;-79
2023/12/26 01:22:39;;;;;;;0.10;0.10;;;;;;;;;;5124226;28;20229;-80
2023/12/26 01:25:06;;;;;;;0.10;0.10;;;;;;;;;;5125296;28;20505;-80
2023/12/26 01:27:33;;;;;;;0.20;0.20;;;;;;;;;;5113380;28;20271;-81
2023/12/26 01:30:01;;;;;;;0.10;0.10;;;;;;;;;;5125012;28;20427;-80
2023/12/26 01:32:27;;;;;;;0.10;0.10;;;;;;;;;;5113454;28;20247;-80
2023/12/26 01:34:55;;;;;;;0.10;0.10;;;;;;;;;;5125119;28;20392;-80
2023/12/26 01:37:22;;;;;;;0.13;0.13;;;;;;;;;;5113282;28;20237;-80
2023/12/26 01:39:48;;;;;;;0.13;0.13;;;;;;;;;;5125052;28;20250;-81
2023/12/26 01:42:14;;;;;;;0.13;0.13;;;;;;;;;;5112336;28;20432;-80
2023/12/26 01:44:41;;;;;;;0.10;0.10;;;;;;;;;;5124630;28;20201;-80
2023/12/26 01:47:07;;;;;;;0.17;0.17;;;;;;;;;;5113159;28;20429;-79
2023/12/26 01:49:34;;;;;;;0.17;0.17;;;;;;;;;;5124633;28;20239;-81
2023/12/26 01:52:02;;;;;;;0.10;0.10;;;;;;;;;;5113234;28;20576;-81
2023/12/26 01:54:29;;;;;;;0.10;0.10;;;;;;;;;;5124552;28;20225;-80
2023/12/26 01:56:56;;;;;;;0.10;0.10;;;;;;;;;;5113174;28;20303;-81
2023/12/26 01:59:23;;;;;;;0.10;0.10;;;;;;;;;;5124323;28;20198;-80
2023/12/26 02:01:49;;;;;;;0.10;0.10;;;;;;;;;;5113127;28;20230;-80
2023/12/26 02:04:16;;;;;;;0.10;0.10;;;;;;;;;;5124122;28;20429;-79
2023/12/26 02:06:43;;;;;;;0.10;0.10;;;;;;;;;;5112999;28;20240;-79
2023/12/26 02:09:11;;;;;;;0.10;0.10;;;;;;;;;;5124134;28;20485;-80
2023/12/26 02:11:39;;;;;;;0.10;0.10;;;;;;;;;;5113088;28;20237;-80
2023/12/26 02:14:06;;;;;;;0.10;0.10;;;;;;;;;;5124240;28;20203;-80
2023/12/26 02:16:36;;;;;;;0.10;0.10;;;;;;;;;;5112611;28;20242;-80
2023/12/26 02:19:02;;;;;;;0.13;0.13;;;;;;;;;;5123857;28;20260;-80
2023/12/26 02:21:28;;;;;;;0.10;0.10;;;;;;;;;;5113084;28;20230;-80
2023/12/26 02:23:57;;;;;;;0.10;0.10;;;;;;;;;;5124042;28;20202;-80
2023/12/26 02:26:24;;;;;;;0.20;0.20;;;;;;;;;;5113094;28;20283;-80
2023/12/26 02:28:51;;;;;;;0.10;0.10;;;;;;;;;;5124032;28;20368;-80
2023/12/26 02:31:18;;;;;;;0.10;0.10;;;;;;;;;;5112756;28;20278;-79
2023/12/26 02:33:45;;;;;;;0.10;0.10;;;;;;;;;;5123543;28;20212;-79
2023/12/26 02:36:12;;;;;;;0.10;0.10;;;;;;;;;;5112854;28;20238;-80
2023/12/26 02:38:38;;;;;;;0.10;0.10;;;;;;;;;;5123445;28;20202;-80
2023/12/26 02:41:06;;;;;;;0.10;0.10;;;;;;;;;;5112810;28;20238;-79
2023/12/26 02:43:33;;;;;;;0.10;0.10;;;;;;;;;;5123381;28;20210;-80
2023/12/26 02:46:00;;;;;;;0.10;0.10;;;;;;;;;;5112799;28;20262;-80
2023/12/26 02:48:26;;;;;;;0.10;0.10;;;;;;;;;;5123175;28;20233;-80
2023/12/26 02:50:53;;;;;;;0.10;0.10;;;;;;;;;;5113161;28;20553;-81
2023/12/26 02:53:20;;;;;;;0.10;0.10;;;;;;;;;;5123917;28;20275;-81
2023/12/26 02:55:48;;;;;;;0.10;0.10;;;;;;;;;;5117323;28;20301;-80
2023/12/26 02:58:16;;;;;;;0.10;0.10;;;;;;;;;;5127303;28;20202;-80
2023/12/26 03:00:42;;;;;;;0.10;0.10;;;;;;;;;;5116955;28;20243;-80
2023/12/26 03:03:08;;;;;;;0.10;0.10;;;;;;;;;;5126872;28;20236;-79
2023/12/26 03:05:35;;;;;;;0.10;0.10;;;;;;;;;;5116891;28;20279;-81
2023/12/26 03:08:01;;;;;;;0.10;0.10;;;;;;;;;;5126852;28;20204;-80
2023/12/26 03:10:28;;;;;;;0.10;0.10;;;;;;;;;;5116872;28;20244;-80
2023/12/26 03:12:54;;;;;;;0.10;0.10;;;;;;;;;;5126973;28;20198;-80
2023/12/26 03:15:22;;;;;;;0.13;0.13;;;;;;;;;;5117111;28;20244;-80
2023/12/26 03:17:48;;;;;;;0.10;0.10;;;;;;;;;;5126792;28;20214;-80
2023/12/26 03:20:15;;;;;;;0.10;0.10;;;;;;;;;;5116842;28;20209;-80
2023/12/26 03:22:42;;;;;;;0.10;0.10;;;;;;;;;;5126397;28;20231;-80
2023/12/26 03:25:08;;;;;;;0.10;0.10;;;;;;;;;;5123041;28;20202;-79
2023/12/26 03:27:35;;;;;;;0.10;0.10;;;;;;;;;;5126334;28;20443;-80
2023/12/26 03:30:02;;;;;;;0.10;0.10;;;;;;;;;;5127343;28;20197;-79
2023/12/26 03:32:30;;;;;;;0.10;0.10;;;;;;;;;;5115403;28;20243;-80
2023/12/26 03:34:56;;;;;;;0.10;0.10;;;;;;;;;;5127588;28;20203;-81
2023/12/26 03:37:23;;;;;;;0.10;0.10;;;;;;;;;;5115568;28;20247;-80
2023/12/26 03:39:49;;;;;;;0.10;0.10;;;;;;;;;;5127041;28;20259;-80
2023/12/26 03:42:16;;;;;;;0.10;0.10;;;;;;;;;;5115514;28;20242;-81
2023/12/26 03:44:43;;;;;;;0.10;0.10;;;;;;;;;;5126922;28;20248;-80
2023/12/26 03:47:10;;;;;;;0.10;0.10;;;;;;;;;;5115444;28;20250;-80
2023/12/26 03:49:38;;;;;;;0.10;0.10;;;;;;;;;;5127194;28;20203;-80
2023/12/26 03:52:05;;;;;;;0.10;0.10;;;;;;;;;;5115557;28;20239;-80
2023/12/26 03:54:31;;;;;;;0.10;0.10;;;;;;;;;;5126625;28;20204;-79
2023/12/26 03:56:57;;;;;;;0.10;0.10;;;;;;;;;;5115468;28;20262;-80
2023/12/26 03:59:24;;;;;;;0.20;0.20;;;;;;;;;;5126856;28;20399;-79
2023/12/26 04:01:50;;;;;;;0.10;0.10;;;;;;;;;;5115240;28;20240;-79
2023/12/26 04:04:17;;;;;;;0.10;0.10;;;;;;;;;;5126283;28;20433;-80
2023/12/26 04:06:45;;;;;;;0.17;0.17;;;;;;;;;;5114452;28;20242;-79
2023/12/26 04:09:12;;;;;;;0.10;0.10;;;;;;;;;;5126196;28;20240;-79
2023/12/26 04:11:38;;;;;;;0.10;0.10;;;;;;;;;;5115052;28;20274;-79
2023/12/26 04:14:05;;;;;;;0.10;0.10;;;;;;;;;;5126127;28;20202;-78
2023/12/26 04:16:31;;;;;;;0.10;0.10;;;;;;;;;;5115078;28;20248;-79
2023/12/26 04:18:58;;;;;;;0.10;0.10;;;;;;;;;;5125890;28;20203;-79
2023/12/26 04:21:24;;;;;;;0.10;0.10;;;;;;;;;;5115104;28;20266;-79
2023/12/26 04:23:52;;;;;;;0.10;0.10;;;;;;;;;;5125813;28;20208;-79
2023/12/26 04:26:18;;;;;;;0.10;0.10;;;;;;;;;;5115010;28;20238;-79
2023/12/26 04:28:45;;;;;;;0.10;0.10;;;;;;;;;;5125679;28;20209;-78
2023/12/26 04:31:12;;;;;;;0.10;0.10;;;;;;;;;;5115185;28;20250;-79
2023/12/26 04:33:38;;;;;;;0.10;0.10;;;;;;;;;;5125819;28;20405;-79
2023/12/26 04:36:06;;;;;;;0.10;0.10;;;;;;;;;;5115145;28;20457;-79
2023/12/26 04:38:33;;;;;;;0.10;0.10;;;;;;;;;;5125688;28;20210;-79
2023/12/26 04:41:01;;;;;;;0.20;0.20;;;;;;;;;;5114958;28;20239;-79
2023/12/26 04:43:27;;;;;;;0.10;0.10;;;;;;;;;;5125617;28;20548;-80
2023/12/26 04:45:54;;;;;;;0.10;0.10;;;;;;;;;;5115014;28;20266;-79
2023/12/26 04:48:20;;;;;;;0.10;0.10;;;;;;;;;;5125239;28;20504;-79
2023/12/26 04:50:46;;;;;;;0.10;0.10;;;;;;;;;;5114854;28;20241;-79
2023/12/26 04:53:14;;;;;;;0.10;0.10;;;;;;;;;;5125150;28;20215;-79
2023/12/26 04:55:41;;;;;;;0.10;0.10;;;;;;;;;;5114934;28;20238;-78
2023/12/26 04:58:09;;;;;;;0.10;0.10;;;;;;;;;;5124902;28;20212;-77
2023/12/26 05:00:35;;;;;;;0.10;0.10;;;;;;;;;;5114686;28;20239;-79
2023/12/26 05:03:01;;;;;;;0.10;0.10;;;;;;;;;;5124393;28;20230;-78
2023/12/26 05:05:28;;;;;;;0.10;0.10;;;;;;;;;;5114450;28;20228;-79
2023/12/26 05:07:54;;;;;;;0.10;0.10;;;;;;;;;;5124638;28;20245;-78
2023/12/26 05:10:21;;;;;;;0.10;0.10;;;;;;;;;;5114593;28;20362;-78
2023/12/26 05:12:47;;;;;;;0.10;0.10;;;;;;;;;;5124546;28;20551;-79
2023/12/26 05:15:15;;;;;;;0.10;0.10;;;;;;;;;;5114494;28;20203;-79
2023/12/26 05:17:42;;;;;;;0.10;0.10;;;;;;;;;;5124289;28;20213;-79
2023/12/26 05:20:08;;;;;;;0.10;0.10;;;;;;;;;;5125001;28;20205;-79
2023/12/26 05:22:35;;;;;;;0.10;0.10;;;;;;;;;;5096643;28;20230;-80
2023/12/26 05:25:02;;;;;;;0.10;0.10;;;;;;;;;;5125327;28;20402;-80
2023/12/26 05:27:28;;;;;;;0.10;0.10;;;;;;;;;;5113243;28;20251;-79
2023/12/26 05:29:54;;;;;;;0.10;0.10;;;;;;;;;;5125046;28;20246;-79
2023/12/26 05:32:22;;;;;;;0.10;0.10;;;;;;;;;;5113638;28;20234;-79
2023/12/26 05:34:49;;;;;;;0.10;0.10;;;;;;;;;;5124751;28;20402;-79
2023/12/26 05:37:15;;;;;;;0.10;0.10;;;;;;;;;;5113185;28;20235;-78
2023/12/26 05:39:43;;;;;;;0.13;0.13;;;;;;;;;;5124754;28;20203;-78
2023/12/26 05:42:09;;;;;;;0.17;0.17;;;;;;;;;;5113130;28;20246;-78
2023/12/26 05:44:35;;;;;;;0.10;0.10;;;;;;;;;;5124652;28;20439;-79
2023/12/26 05:47:03;;;;;;;0.10;0.10;;;;;;;;;;5113330;28;20305;-79
2023/12/26 05:49:31;;;;;;;0.10;0.10;;;;;;;;;;5124842;28;20202;-79
2023/12/26 05:51:57;;;;;;;0.10;0.10;;;;;;;;;;5113001;28;20269;-78
2023/12/26 05:54:24;;;;;;;0.10;0.10;;;;;;;;;;5124294;28;20210;-79
2023/12/26 05:56:50;;;;;;;0.10;0.10;;;;;;;;;;5113188;28;20295;-80
2023/12/26 05:59:17;;;;;;;0.10;0.10;;;;;;;;;;5124198;28;20198;-78
2023/12/26 06:01:45;;;;;;;0.10;0.10;;;;;;;;;;5113242;28;20303;-78
2023/12/26 06:04:11;;;;;;;0.10;0.10;;;;;;;;;;5123852;28;20229;-78
2023/12/26 06:06:39;;;;;;;0.10;0.10;;;;;;;;;;5113279;28;20238;-80
2023/12/26 06:09:06;;;;;;;0.10;0.10;;;;;;;;;;5124118;28;20199;-78
2023/12/26 06:11:32;;;;;;;0.10;0.10;;;;;;;;;;5112923;28;20284;-79
2023/12/26 06:13:58;;;;;;;0.20;0.20;;;;;;;;;;5123929;28;20198;-78
2023/12/26 06:16:25;;;;;;;0.10;0.10;;;;;;;;;;5112971;28;20238;-79
2023/12/26 06:18:52;;;;;;;0.10;0.10;;;;;;;;;;5124141;28;20203;-79
2023/12/26 06:21:18;;;;;;;0.10;0.10;;;;;;;;;;5112940;28;20242;-78
2023/12/26 06:23:46;;;;;;;0.10;0.10;;;;;;;;;;5123637;28;20248;-78
2023/12/26 06:26:12;;;;;;;0.10;0.10;;;;;;;;;;5112862;28;20328;-78
2023/12/26 06:28:39;;;;;;;0.13;0.13;;;;;;;;;;5123307;28;20202;-78
2023/12/26 06:31:05;;;;;;;0.10;0.10;;;;;;;;;;5113005;28;20237;-78
2023/12/26 06:33:32;;;;;;;0.10;0.10;;;;;;;;;;5123647;28;20198;-78
2023/12/26 06:35:58;;;;;;;0.10;0.10;;;;;;;;;;5112982;28;20238;-78
2023/12/26 06:38:25;;;;;;;0.10;0.10;;;;;;;;;;5123300;28;20210;-78
2023/12/26 06:40:52;;;;;;;0.10;0.10;;;;;;;;;;5113119;28;20284;-78
2023/12/26 06:43:19;;;;;;;0.10;0.10;;;;;;;;;;5123477;28;20238;-78
2023/12/26 06:45:45;;;;;;;0.10;0.10;;;;;;;;;;5113077;28;20237;-78
2023/12/26 06:48:12;;;;;;;0.10;0.10;;;;;;;;;;5123485;28;20204;-79
2023/12/26 06:50:38;;;;;;;0.10;0.10;;;;;;;;;;5112980;28;20239;-79
2023/12/26 06:53:05;;;;;;;0.10;0.10;;;;;;;;;;5123233;28;20203;-79
2023/12/26 06:55:31;;;;;;;0.10;0.10;;;;;;;;;;5113017;28;20311;-79
2023/12/26 06:57:59;;;;;;;0.10;0.10;;;;;;;;;;5123238;28;20203;-79
2023/12/26 07:00:25;;;;;;;0.20;0.20;;;;;;;;;;5113236;28;20202;-79
2023/12/26 07:02:53;;;;;;;0.10;0.10;;;;;;;;;;5122821;28;20276;-78
2023/12/26 07:05:20;;;;;;;0.10;0.10;;;;;;;;;;5113085;28;20248;-79
2023/12/26 07:07:46;;;;;;;0.10;0.10;;;;;;;;;;5123034;28;20231;-79
2023/12/26 07:10:13;;;;;;;0.10;0.10;;;;;;;;;;5113250;28;20204;-78
2023/12/26 07:12:39;;;;;;;0.10;0.10;;;;;;;;;;5123001;28;20198;-79
2023/12/26 07:15:08;;;;;;;0.10;0.10;;;;;;;;;;5123578;28;20199;-78
2023/12/26 07:17:34;;;;;;;0.10;0.10;;;;;;;;;;5095216;28;20204;-79
2023/12/26 07:20:01;;;;;;;0.10;0.10;;;;;;;;;;5123589;28;20210;-79
2023/12/26 07:22:27;;;;;;;0.10;0.10;;;;;;;;;;5111823;28;20293;-80
2023/12/26 07:24:53;;;;;;;0.10;0.10;;;;;;;;;;5123595;28;20205;-78
2023/12/26 07:27:20;;;;;;;0.10;0.10;;;;;;;;;;5112108;28;20441;-78
2023/12/26 07:29:46;;;;;;;0.10;0.10;;;;;;;;;;5123492;28;20204;-79
2023/12/26 07:32:14;;;;;;;0.10;0.10;;;;;;;;;;5111857;28;20245;-79
2023/12/26 07:34:41;;;;;;;0.10;0.10;;;;;;;;;;5123402;28;20208;-78
2023/12/26 07:37:08;;;;;;;0.10;0.10;;;;;;;;;;5112054;28;20283;-78
2023/12/26 07:39:34;;;;;;;0.10;0.10;;;;;;;;;;5123752;28;20250;-79
2023/12/26 07:42:01;;;;;;;0.13;0.13;;;;;;;;;;5115186;28;20269;-78
2023/12/26 07:44:27;;;;;;;0.10;0.10;;;;;;;;;;5126959;28;20242;-79
2023/12/26 07:46:54;;;;;;;0.10;0.10;;;;;;;;;;5115556;28;20241;-79
2023/12/26 07:49:22;;;;;;;0.10;0.10;;;;;;;;;;5126808;28;20196;-79
2023/12/26 07:51:48;;;;;;;0.10;0.10;;;;;;;;;;5115498;28;20240;-78
2023/12/26 07:54:15;;;;;;;0.10;0.10;;;;;;;;;;5126596;28;20220;-78
2023/12/26 07:56:41;;;;;;;0.10;0.10;;;;;;;;;;5115295;28;20247;-79
2023/12/26 07:59:10;;;;;;;0.10;0.10;;;;;;;;;;5126567;28;20211;-79
2023/12/26 08:01:36;;;;;;;0.10;0.10;;;;;;;;;;5115395;28;20307;-79
2023/12/26 08:04:03;;;;;;;0.13;0.13;;;;;;;;;;5126200;28;20228;-79
2023/12/26 08:06:31;;;;;;;0.10;0.10;;;;;;;;;;5114923;28;20297;-79
2023/12/26 08:08:58;;;;;;;0.10;0.10;;;;;;;;;;5126198;28;20196;-79
2023/12/26 08:11:25;;;;;;;0.10;0.10;;;;;;;;;;5115304;28;20240;-79
2023/12/26 08:13:52;;;;;;;0.13;0.13;;;;;;;;;;5126267;28;20240;-79
2023/12/26 08:16:19;;;;;;;0.10;0.10;;;;;;;;;;5115257;28;20245;-79
2023/12/26 08:18:45;;;;;;;0.10;0.10;;;;;;;;;;5126078;28;20204;-79
2023/12/26 08:21:12;;;;;;;0.10;0.10;;;;;;;;;;5115085;28;20274;-79
2023/12/26 08:23:39;;;;;;;0.10;0.10;;;;;;;;;;5125653;28;20225;-79
2023/12/26 08:26:06;;;;;;;0.10;0.10;;;;;;;;;;5114919;28;20245;-79
2023/12/26 08:28:33;;;;;;;0.10;0.10;;;;;;;;;;5125575;28;20230;-79
2023/12/26 08:30:59;;;;;;;0.20;0.20;;;;;;;;;;5114889;28;20240;-79
2023/12/26 08:33:26;;;;;;;0.10;0.10;;;;;;;;;;5125959;28;20188;-84
2023/12/26 08:35:52;;;;;;;0.10;0.10;;;;;;;;;;5097679;28;20242;-83
2023/12/26 08:38:22;;;;;;;0.10;0.10;;;;;;;;;;5125664;28;20393;-76
2023/12/26 08:40:50;;;;;;;0.10;0.10;;;;;;;;;;5115046;28;20570;-82
2023/12/26 08:43:17;;;;;;;0.10;0.10;;;;;;;;;;5125465;28;20232;-80
2023/12/26 08:45:43;;;;;;;0.10;0.10;;;;;;;;;;5115223;28;20240;-82
2023/12/26 08:48:10;;;;;;;0.10;0.10;;;;;;;;;;5125439;28;20252;-82
2023/12/26 08:50:36;;;;;;;0.10;0.10;;;;;;;;;;5115146;28;20261;-82
2023/12/26 08:53:03;;;;;;;0.10;0.10;;;;;;;;;;5125074;28;20504;-80
2023/12/26 08:55:29;;;;;;;0.10;0.10;;;;;;;;;;5115365;28;20470;-85
2023/12/26 08:57:57;;;;;;;0.10;0.10;;;;;;;;;;5125243;28;20253;-85
2023/12/26 09:00:23;;;;;;;0.10;0.10;;;;;;;;;;5116287;28;20540;-82
2023/12/26 09:02:52;;;;;;;0.10;0.10;;;;;;;;;;5124924;28;20423;-82
2023/12/26 09:05:18;;;;;;;0.10;0.10;;;;;;;;;;5115192;28;20219;-82
2023/12/26 09:07:46;;;;;;;0.10;0.10;;;;;;;;;;5124944;28;20210;-83
2023/12/26 09:10:13;;;;;;;0.10;0.10;;;;;;;;;;5115191;28;20203;-81
2023/12/26 09:12:39;;;;;;;0.10;0.10;;;;;;;;;;5124975;28;20394;-79
2023/12/26 09:15:07;;;;;;;0.10;0.10;;;;;;;;;;5125665;28;20412;-78
2023/12/26 09:17:36;;;;;;;0.10;0.10;;;;;;;;;;5097456;28;20214;-81
2023/12/26 09:20:02;;;;;;;0.10;0.10;;;;;;;;;;5125466;28;20248;-79
2023/12/26 09:22:28;;;;;;;0.10;0.10;;;;;;;;;;5113833;28;20246;-72
2023/12/26 09:24:55;;;;;;;0.10;0.10;;;;;;;;;;5125521;28;20219;-82
2023/12/26 09:27:21;;;;;;;0.10;0.10;;;;;;;;;;5113796;28;20244;-83
2023/12/26 09:29:48;;;;;;;0.10;0.10;;;;;;;;;;5125503;28;20205;-86
2023/12/26 09:32:16;;;;;;;0.10;0.10;;;;;;;;;;5113919;28;20243;-82
2023/12/26 09:34:42;;;;;;;0.10;0.10;;;;;;;;;;5125517;28;20390;-77
2023/12/26 09:37:10;;;;;;;0.10;0.10;;;;;;;;;;5113659;28;20239;-85
2023/12/26 09:39:36;;;;;;;0.20;0.20;;;;;;;;;;5125411;28;20195;-86
2023/12/26 09:42:03;;;;;;;0.17;0.17;;;;;;;;;;5113915;28;20471;-86
2023/12/26 09:44:30;;;;;;;0.10;0.10;;;;;;;;;;5125076;28;20393;-81
2023/12/26 09:46:58;;;;;;;0.10;0.10;;;;;;;;;;5113333;28;20251;-78
2023/12/26 09:49:26;;;;;;;0.10;0.10;;;;;;;;;;5124996;28;20260;-80
2023/12/26 09:51:52;;;;;;;0.13;0.13;;;;;;;;;;5113187;28;20287;-82
2023/12/26 09:54:20;;;;;;;0.10;0.10;;;;;;;;;;5125037;28;20198;-84
2023/12/26 09:56:47;;;;;;;0.10;0.10;;;;;;;;;;5113481;28;20239;-78
2023/12/26 09:59:13;;;;;;;0.10;0.10;;;;;;;;;;5124831;28;20264;-83
2023/12/26 10:01:40;;;;;;;0.10;0.10;;;;;;;;;;5113344;28;20295;-82
2023/12/26 10:04:07;;;;;;;0.10;0.10;;;;;;;;;;5123471;28;20233;-78
2023/12/26 10:06:35;;;;;;;0.10;0.10;;;;;;;;;;5113086;28;20239;-78
2023/12/26 10:09:01;;;;;;;0.10;0.10;;;;;;;;;;5124525;28;20390;-78
2023/12/26 10:11:28;;;;;;;0.10;0.10;;;;;;;;;;5113259;28;20497;-78
2023/12/26 10:13:55;;;;;;;0.10;0.10;;;;;;;;;;5124084;28;20198;-79
2023/12/26 10:16:22;;;;;;;0.10;0.10;;;;;;;;;;5113179;28;20249;-79
2023/12/26 10:18:50;;;;;;;0.10;0.10;;;;;;;;;;5123986;28;20203;-79
2023/12/26 10:21:17;;;;;;;0.10;0.10;;;;;;;;;;5113302;28;20463;-78
2023/12/26 10:23:45;;;;;;;0.10;0.10;;;;;;;;;;5123768;28;20268;-78
2023/12/26 10:26:11;;;;;;;0.10;0.10;;;;;;;;;;5113007;28;20238;-78
2023/12/26 10:28:39;;;;;;;0.10;0.10;;;;;;;;;;5123692;28;20244;-78
2023/12/26 10:31:13;;;;;;;0.10;0.10;;;;;;;;;;5113116;28;20243;-78
2023/12/26 10:33:40;;;;;;;0.10;0.10;;;;;;;;;;5123714;28;20237;-78
2023/12/26 10:36:07;;;;;;;0.10;0.10;;;;;;;;;;5112899;28;20240;-78
2023/12/26 10:38:34;;;;;;;0.10;0.10;;;;;;;;;;5123704;28;20237;-79
2023/12/26 10:41:04;;;;;;;0.10;0.10;;;;;;;;;;5112879;28;20280;-78
2023/12/26 10:43:32;;;;;;;0.10;0.10;;;;;;;;;;5123832;28;20418;-76
2023/12/26 10:45:58;;;;;;;0.10;0.10;;;;;;;;;;5113046;28;20242;-80
2023/12/26 10:48:26;;;;;;;0.10;0.10;;;;;;;;;;5123857;28;20205;-82
2023/12/26 10:50:53;;;;;;;0.10;0.10;;;;;;;;;;5113139;28;20246;-81
2023/12/26 10:53:21;;;;;;;0.10;0.10;;;;;;;;;;5123528;28;20432;-79
2023/12/26 10:55:50;;;;;;;0.10;0.10;;;;;;;;;;5113223;28;20288;-81
2023/12/26 10:58:23;;;;;;;0.10;0.10;;;;;;;;;;5123356;28;20270;-80
2023/12/26 11:00:50;;;;;;;0.10;0.10;;;;;;;;;;5112571;28;20243;-79
2023/12/26 13:51:26;;;;;;;0.10;0.10;;;;;;;;;;5113987;28;20291;-83
2023/12/26 13:53:52;;;;;;;0.10;0.10;;;;;;;;;;5124453;28;20270;-83
2023/12/26 13:56:19;;;;;;;0.10;0.10;;;;;;;;;;5113553;28;20239;-83
2023/12/26 13:58:44;;;;;;;0.10;0.10;;;;;;;;;;5124434;28;20203;-83
2023/12/26 14:01:11;;;;;;;0.10;0.10;;;;;;;;;;5113686;28;20285;-82
2023/12/26 14:03:37;;;;;;;0.10;0.10;;;;;;;;;;5124112;28;20217;-83
2023/12/26 14:06:03;;;;;;;0.10;0.10;;;;;;;;;;5113378;28;20301;-83
2023/12/26 14:08:49;;;;;;;0.10;0.10;;;;;;;;;;5131189;28;20224;-83
2023/12/26 14:11:17;;;;;;;0.10;0.10;;;;;;;;;;5113407;28;20250;-83
2023/12/26 14:13:44;;;;;;;0.13;0.13;;;;;;;;;;5124145;28;20275;-83
2023/12/26 14:16:10;;;;;;;0.10;0.10;;;;;;;;;;5113428;28;20264;-82
2023/12/26 14:18:36;;;;;;;0.10;0.10;;;;;;;;;;5124211;28;20454;-82
2023/12/26 14:21:03;;;;;;;0.20;0.20;;;;;;;;;;5113356;28;20253;-82
2023/12/26 14:23:29;;;;;;;0.10;0.10;;;;;;;;;;5123834;28;20200;-82
2023/12/26 14:25:56;;;;;;;0.10;0.10;;;;;;;;;;5113432;28;20263;-81
2023/12/26 14:28:24;;;;;;;0.10;0.10;;;;;;;;;;5123887;28;20210;-83
2023/12/26 14:30:50;;;;;;;0.10;0.10;;;;;;;;;;5113482;28;20300;-83
2023/12/26 14:33:19;;;;;;;0.10;0.10;;;;;;;;;;5123679;28;20202;-82
2023/12/26 14:35:46;;;;;;;0.10;0.10;;;;;;;;;;5113837;28;20460;-83
2023/12/26 14:38:12;;;;;;;0.10;0.10;;;;;;;;;;5123640;28;20197;-83
2023/12/26 14:40:38;;;;;;;0.10;0.10;;;;;;;;;;5113741;28;20246;-83
2023/12/26 14:43:06;;;;;;;0.10;0.10;;;;;;;;;;5123675;28;20280;-81
2023/12/26 14:45:33;;;;;;;0.10;0.10;;;;;;;;;;5113305;28;20242;-82
2023/12/26 14:48:00;;;;;;;0.10;0.10;;;;;;;;;;5123423;28;20212;-82
2023/12/26 14:50:26;;;;;;;0.10;0.10;;;;;;;;;;5116201;28;20203;-83
2023/12/26 14:52:53;;;;;;;0.10;0.10;;;;;;;;;;5127572;28;20202;-83
2023/12/26 14:55:19;;;;;;;0.10;0.10;;;;;;;;;;5117988;28;20264;-82
2023/12/26 14:57:45;;;;;;;0.10;0.10;;;;;;;;;;5127546;28;20196;-83
2023/12/26 15:00:12;;;;;;;0.10;0.10;;;;;;;;;;5117911;28;20249;-83
2023/12/26 15:02:41;;;;;;;0.10;0.10;;;;;;;;;;5126933;28;20211;-82
2023/12/26 15:05:09;;;;;;;0.10;0.10;;;;;;;;;;5128234;28;20448;-82
2023/12/26 15:07:35;;;;;;;0.10;0.10;;;;;;;;;;5099317;28;20212;-83
2023/12/26 15:10:02;;;;;;;0.20;0.20;;;;;;;;;;5127861;28;20248;-82
2023/12/26 15:12:28;;;;;;;0.10;0.10;;;;;;;;;;5116246;28;20321;-83
2023/12/26 15:14:56;;;;;;;0.10;0.10;;;;;;;;;;5127777;28;20437;-83
2023/12/26 15:17:22;;;;;;;0.10;0.10;;;;;;;;;;5116150;28;20238;-83
2023/12/26 15:19:50;;;;;;;0.10;0.10;;;;;;;;;;5127969;28;20242;-83
2023/12/26 15:22:17;;;;;;;0.10;0.10;;;;;;;;;;5116253;28;20247;-83
2023/12/26 15:24:43;;;;;;;0.10;0.10;;;;;;;;;;5127955;28;20224;-82
2023/12/26 15:27:10;;;;;;;0.10;0.10;;;;;;;;;;5116210;28;20289;-82
2023/12/26 15:29:36;;;;;;;0.10;0.10;;;;;;;;;;5127564;28;20212;-83
2023/12/26 15:32:03;;;;;;;0.10;0.10;;;;;;;;;;5115782;28;20249;-83
2023/12/26 15:34:30;;;;;;;0.10;0.10;;;;;;;;;;5127391;28;20202;-82
2023/12/26 15:36:58;;;;;;;0.10;0.10;;;;;;;;;;5115897;28;20241;-82
2023/12/26 15:39:24;;;;;;;0.10;0.10;;;;;;;;;;5127602;28;20228;-83
2023/12/26 15:41:51;;;;;;;0.10;0.10;;;;;;;;;;5115722;28;20238;-83
2023/12/26 15:44:17;;;;;;;0.10;0.10;;;;;;;;;;5127166;28;20200;-83
2023/12/26 15:46:46;;;;;;;0.10;0.10;;;;;;;;;;5115686;28;20307;-82
2023/12/26 15:49:12;;;;;;;0.10;0.10;;;;;;;;;;5127160;28;20479;-83
2023/12/26 15:51:41;;;;;;;0.10;0.10;;;;;;;;;;5115741;28;20252;-83
2023/12/26 15:54:09;;;;;;;0.13;0.13;;;;;;;;;;5126869;28;20250;-82
2023/12/26 15:56:36;;;;;;;0.10;0.10;;;;;;;;;;5115565;28;20268;-83
2023/12/26 15:59:04;;;;;;;0.10;0.10;;;;;;;;;;5126646;28;20233;-83
2023/12/26 16:01:30;;;;;;;0.20;0.20;;;;;;;;;;5114356;28;20249;-83
2023/12/26 16:03:57;;;;;;;0.10;0.10;;;;;;;;;;5126300;28;20273;-82
2023/12/26 16:06:24;;;;;;;0.10;0.10;;;;;;;;;;5115711;28;20252;-83
2023/12/26 16:08:50;;;;;;;0.10;0.10;;;;;;;;;;5126657;28;20367;-83
2023/12/26 16:11:18;;;;;;;0.10;0.10;;;;;;;;;;5115644;28;20238;-82
2023/12/26 16:13:45;;;;;;;0.10;0.10;;;;;;;;;;5126157;28;20199;-83
2023/12/26 16:16:12;;;;;;;0.10;0.10;;;;;;;;;;5115666;28;20245;-82
2023/12/26 16:18:39;;;;;;;0.10;0.10;;;;;;;;;;5126369;28;20427;-83
2023/12/26 16:21:05;;;;;;;0.10;0.10;;;;;;;;;;5115515;28;20256;-82
2023/12/26 16:23:32;;;;;;;0.10;0.10;;;;;;;;;;5125811;28;20208;-83
2023/12/26 16:25:58;;;;;;;0.13;0.13;;;;;;;;;;5115648;28;20487;-84
2023/12/26 16:28:27;;;;;;;0.10;0.10;;;;;;;;;;5125555;28;20208;-74
2023/12/26 16:30:54;;;;;;;0.10;0.10;;;;;;;;;;5115218;28;20242;-74
2023/12/26 16:33:21;;;;;;;0.20;0.20;;;;;;;;;;5125631;28;20381;-74
2023/12/26 16:35:47;;;;;;;0.10;0.10;;;;;;;;;;5115528;28;20286;-74
2023/12/26 16:38:14;;;;;;;0.10;0.10;;;;;;;;;;5125461;28;20208;-74
2023/12/26 16:40:41;;;;;;;0.10;0.10;;;;;;;;;;5115543;28;20485;-74
2023/12/26 16:43:07;;;;;;;0.10;0.10;;;;;;;;;;5125332;28;20204;-74
2023/12/26 16:45:35;;;;;;;0.10;0.10;;;;;;;;;;5115506;28;20304;-74
2023/12/26 16:48:02;;;;;;;0.10;0.10;;;;;;;;;;5124979;28;20208;-73
2023/12/26 16:50:29;;;;;;;0.10;0.10;;;;;;;;;;5115262;28;20247;-73
2023/12/26 16:52:55;;;;;;;0.10;0.10;;;;;;;;;;5125086;28;20242;-73
2023/12/26 16:55:22;;;;;;;0.10;0.10;;;;;;;;;;5115129;28;20205;-74
2023/12/26 16:57:48;;;;;;;0.10;0.10;;;;;;;;;;5124864;28;20204;-76
2023/12/26 17:00:15;;;;;;;0.10;0.10;;;;;;;;;;5115092;28;20205;-73
2023/12/26 17:02:43;;;;;;;0.10;0.10;;;;;;;;;;5124680;28;20253;-71
2023/12/26 17:05:09;;;;;;;0.10;0.10;;;;;;;;;;5118377;28;20233;-76
2023/12/26 17:07:36;;;;;;;0.10;0.10;;;;;;;;;;5124538;28;20520;-73
2023/12/26 17:10:03;;;;;;;0.10;0.10;;;;;;;;;;5125460;28;20242;-73
2023/12/26 17:12:29;;;;;;;0.10;0.10;;;;;;;;;;5113624;28;20480;-73
2023/12/26 17:14:55;;;;;;;0.10;0.10;;;;;;;;;;5125729;28;20198;-74
2023/12/26 17:17:23;;;;;;;0.10;0.10;;;;;;;;;;5113743;28;20243;-73
2023/12/26 17:19:51;;;;;;;0.10;0.10;;;;;;;;;;5125303;28;20203;-74
2023/12/26 17:22:17;;;;;;;0.10;0.10;;;;;;;;;;5113725;28;20243;-75
2023/12/26 17:25:06;;;;;;;0.10;0.10;;;;;;;;;;5125180;28;20249;-75
2023/12/26 17:30:21;;;;;;;0.10;0.10;;;;;;;;;;5114311;28;20253;-74
2023/12/26 17:32:48;;;;;;;0.10;0.10;;;;;;;;;;5124192;28;20257;-74